createdAt,value
2023-05-18T00:00:20.145Z,2.70
2023-05-18T00:02:49.707Z,2.80
2023-05-18T00:05:19.981Z,3.00
2023-05-18T00:07:50.273Z,2.83
2023-05-18T00:10:19.118Z,2.60
2023-05-18T00:12:47.879Z,2.77
2023-05-18T00:15:16.565Z,2.60
2023-05-18T00:17:45.904Z,2.33
2023-05-18T00:20:15.539Z,2.60
2023-05-18T00:22:44.172Z,3.07
2023-05-18T00:25:14.326Z,2.97
2023-05-18T00:27:43.018Z,2.70
2023-05-18T00:30:12.623Z,2.73
2023-05-18T00:32:41.320Z,3.13
2023-05-18T00:35:10.348Z,2.60
2023-05-18T00:37:38.998Z,2.10
2023-05-18T00:40:09.292Z,2.03
2023-05-18T00:42:39.704Z,2.37
2023-05-18T00:45:09.621Z,2.47
2023-05-18T00:47:38.468Z,2.17
2023-05-18T00:50:08.066Z,2.80
2023-05-18T00:52:37.959Z,2.40
2023-05-18T00:55:08.727Z,2.57
2023-05-18T00:57:38.810Z,2.37
2023-05-18T01:00:11.026Z,2.40
2023-05-18T01:02:43.125Z,2.40
2023-05-18T01:05:12.436Z,2.47
2023-05-18T01:07:42.762Z,2.10
2023-05-18T01:10:13.220Z,2.20
2023-05-18T01:12:47.297Z,2.40
2023-05-18T01:15:19.062Z,2.73
2023-05-18T01:18:01.087Z,2.27
2023-05-18T01:20:39.281Z,2.37
2023-05-18T01:23:41.742Z,2.00
2023-05-18T01:26:17.350Z,2.20
2023-05-18T01:28:47.808Z,2.03
2023-05-18T01:31:17.424Z,2.00
2023-05-18T01:33:46.526Z,2.50
2023-05-18T01:36:15.437Z,2.50
2023-05-18T01:38:45.564Z,2.20
2023-05-18T01:41:21.616Z,2.63
2023-05-18T01:43:57.324Z,2.37
2023-05-18T01:46:36.998Z,2.50
2023-05-18T01:49:12.726Z,2.80
2023-05-18T01:51:46.381Z,2.87
2023-05-18T01:54:18.961Z,2.70
2023-05-18T01:56:50.344Z,2.60
2023-05-18T01:59:19.353Z,2.10
2023-05-18T02:01:48.040Z,2.53
2023-05-18T02:04:17.486Z,2.90
2023-05-18T02:06:46.208Z,2.43
2023-05-18T02:09:14.826Z,2.30
2023-05-18T02:11:43.438Z,2.67
2023-05-18T02:14:13.532Z,2.47
2023-05-18T02:16:42.122Z,2.33
2023-05-18T02:19:10.820Z,3.17
2023-05-18T02:21:39.676Z,2.80
2023-05-18T02:24:09.170Z,2.70
2023-05-18T02:26:38.597Z,2.43
2023-05-18T02:29:09.601Z,2.30
2023-05-18T02:31:39.832Z,2.40
2023-05-18T02:34:09.308Z,2.50
2023-05-18T02:36:40.528Z,2.60
2023-05-18T02:39:09.408Z,2.60
2023-05-18T02:41:38.690Z,2.90
2023-05-18T02:44:07.680Z,2.60
2023-05-18T02:46:36.306Z,2.73
2023-05-18T02:49:06.441Z,3.27
2023-05-18T02:51:35.116Z,2.90
2023-05-18T02:54:03.733Z,3.27
2023-05-18T02:56:33.768Z,2.70
2023-05-18T02:59:02.358Z,3.37
2023-05-18T03:01:31.073Z,3.87
2023-05-18T03:03:59.726Z,8.97
2023-05-18T03:06:30.654Z,7.37
2023-05-18T03:08:59.372Z,5.67
2023-05-18T03:11:28.006Z,5.20
2023-05-18T03:13:56.690Z,3.57
2023-05-18T03:16:28.912Z,3.63
2023-05-18T03:18:59.498Z,3.10
2023-05-18T03:21:34.259Z,3.37
2023-05-18T03:24:02.904Z,2.97
2023-05-18T03:26:31.584Z,3.13
2023-05-18T03:29:01.485Z,3.40
2023-05-18T03:31:30.188Z,3.07
2023-05-18T03:33:58.741Z,2.97
2023-05-18T03:36:29.438Z,3.07
2023-05-18T03:38:58.150Z,3.33
2023-05-18T03:41:26.712Z,3.10
2023-05-18T03:43:55.363Z,3.10
2023-05-18T03:46:23.987Z,3.03
2023-05-18T03:48:54.083Z,3.03
2023-05-18T03:51:22.714Z,3.03
2023-05-18T03:53:52.767Z,3.00
2023-05-18T03:56:21.437Z,3.33
2023-05-18T03:58:51.619Z,3.20
2023-05-18T04:01:23.995Z,3.43
2023-05-18T04:03:56.693Z,3.13
2023-05-18T04:06:26.360Z,2.70
2023-05-18T04:08:56.484Z,2.67
2023-05-18T04:11:25.073Z,3.10
2023-05-18T04:13:53.731Z,3.07
2023-05-18T04:16:22.441Z,2.73
2023-05-18T04:18:51.250Z,3.10
2023-05-18T04:21:19.869Z,3.33
2023-05-18T04:23:48.556Z,3.10
2023-05-18T04:26:20.472Z,2.83
2023-05-18T04:28:50.157Z,3.40
2023-05-18T04:31:18.809Z,2.63
2023-05-18T04:33:47.984Z,2.40
2023-05-18T04:36:21.157Z,2.70
2023-05-18T04:38:51.011Z,2.70
2023-05-18T04:41:22.447Z,2.40
2023-05-18T04:43:51.700Z,2.33
2023-05-18T04:46:22.538Z,3.00
2023-05-18T04:48:51.263Z,2.80
2023-05-18T04:51:21.832Z,2.33
2023-05-18T04:53:51.561Z,2.53
2023-05-18T04:56:22.989Z,4.67
2023-05-18T04:58:51.775Z,2.87
2023-05-18T05:01:20.536Z,2.97
2023-05-18T05:03:49.359Z,2.90
2023-05-18T05:06:18.141Z,2.60
2023-05-18T05:08:46.731Z,2.93
2023-05-18T05:11:15.396Z,2.27
2023-05-18T05:13:45.595Z,2.40
2023-05-18T05:16:14.392Z,2.50
2023-05-18T05:18:44.163Z,2.60
2023-05-18T05:21:14.680Z,2.47
2023-05-18T05:23:43.356Z,2.10
2023-05-18T05:26:12.268Z,2.40
2023-05-18T05:28:40.886Z,2.23
2023-05-18T05:31:11.455Z,2.47
2023-05-18T05:33:40.442Z,2.90
2023-05-18T05:36:10.202Z,2.03
2023-05-18T05:38:39.233Z,2.90
2023-05-18T05:41:07.891Z,2.50
2023-05-18T05:43:36.664Z,2.20
2023-05-18T05:46:05.728Z,2.60
2023-05-18T05:48:35.998Z,2.13
2023-05-18T05:51:04.804Z,2.03
2023-05-18T05:53:33.538Z,2.27
2023-05-18T05:56:02.594Z,2.37
2023-05-18T05:58:31.186Z,2.20
2023-05-18T06:00:59.853Z,2.10
2023-05-18T06:03:29.590Z,1.83
2023-05-18T06:05:59.813Z,1.97
2023-05-18T06:08:28.554Z,2.00
2023-05-18T06:10:57.386Z,1.80
2023-05-18T06:13:26.265Z,2.00
2023-05-18T06:15:54.949Z,1.80
2023-05-18T06:18:23.511Z,1.80
2023-05-18T06:20:52.561Z,2.23
2023-05-18T06:23:23.862Z,1.70
2023-05-18T06:25:52.505Z,1.90
2023-05-18T06:28:21.087Z,1.87
2023-05-18T06:30:49.902Z,2.10
2023-05-18T06:33:21.353Z,1.40
2023-05-18T06:35:50.027Z,1.60
2023-05-18T06:38:18.698Z,1.90
2023-05-18T06:40:48.751Z,1.70
2023-05-18T06:43:17.358Z,1.73
2023-05-18T06:45:47.411Z,2.00
2023-05-18T06:48:16.009Z,1.70
2023-05-18T06:50:44.769Z,1.60
2023-05-18T06:53:13.820Z,1.67
2023-05-18T06:55:42.526Z,1.50
2023-05-18T06:58:12.671Z,1.60
2023-05-18T07:00:41.346Z,1.90
2023-05-18T07:03:10.075Z,1.70
2023-05-18T07:05:39.742Z,1.53
2023-05-18T07:08:09.881Z,3.70
2023-05-18T07:10:38.660Z,5.73
2023-05-18T07:13:07.435Z,3.63
2023-05-18T07:15:37.528Z,1.60
2023-05-18T07:18:06.367Z,1.30
2023-05-18T07:20:35.112Z,1.40
2023-05-18T07:23:04.301Z,1.30
2023-05-18T07:25:33.084Z,1.30
2023-05-18T07:28:02.043Z,1.43
2023-05-18T07:30:30.709Z,1.40
2023-05-18T07:33:00.917Z,1.50
2023-05-18T07:35:30.268Z,2.50
2023-05-18T07:37:59.089Z,1.37
2023-05-18T07:40:27.781Z,1.67
2023-05-18T07:42:56.401Z,1.50
2023-05-18T07:45:25.010Z,1.37
2023-05-18T07:47:54.302Z,2.63
2023-05-18T07:50:24.904Z,1.90
2023-05-18T07:52:53.752Z,1.93
2023-05-18T07:55:22.408Z,1.80
2023-05-18T07:57:51.109Z,2.77
2023-05-18T08:00:20.754Z,1.60
2023-05-18T08:02:49.926Z,1.50
2023-05-18T08:05:18.968Z,1.70
2023-05-18T08:07:49.266Z,1.70
2023-05-18T08:10:17.912Z,1.73
2023-05-18T08:12:46.610Z,1.60
2023-05-18T08:15:15.218Z,2.30
2023-05-18T08:17:43.923Z,1.63
2023-05-18T08:20:13.583Z,1.70
2023-05-18T08:22:42.196Z,1.40
2023-05-18T08:25:12.818Z,1.40
2023-05-18T08:27:41.463Z,1.47
2023-05-18T08:30:11.367Z,1.10
2023-05-18T08:32:40.035Z,1.20
2023-05-18T08:35:10.306Z,1.10
2023-05-18T08:37:40.027Z,1.50
2023-05-18T08:40:11.850Z,1.00
2023-05-18T08:42:53.252Z,1.30
2023-05-18T08:45:27.433Z,1.40
2023-05-18T08:47:58.859Z,1.23
2023-05-18T08:50:29.143Z,1.47
2023-05-18T08:53:02.198Z,1.30
2023-05-18T08:55:34.987Z,1.50
2023-05-18T08:58:07.609Z,1.53
2023-05-18T09:00:37.538Z,1.67
2023-05-18T09:03:08.506Z,1.40
2023-05-18T09:05:38.079Z,1.53
2023-05-18T09:08:08.683Z,1.30
2023-05-18T09:10:38.205Z,1.60
2023-05-18T09:13:09.525Z,1.30
2023-05-18T09:15:38.735Z,1.48
2023-05-18T09:18:07.561Z,2.10
2023-05-18T09:20:36.608Z,1.40
2023-05-18T09:23:07.037Z,1.20
2023-05-18T09:25:36.864Z,1.20
2023-05-18T09:28:08.168Z,0.75
2023-05-18T09:30:43.932Z,1.17
2023-05-18T09:33:22.033Z,1.17
2023-05-18T09:35:53.097Z,1.13
2023-05-18T09:38:24.462Z,0.88
2023-05-18T09:40:53.258Z,1.13
2023-05-18T09:43:23.336Z,1.02
2023-05-18T09:45:53.876Z,1.23
2023-05-18T09:48:25.181Z,1.17
2023-05-18T09:50:54.750Z,0.90
2023-05-18T09:53:24.074Z,1.05
2023-05-18T09:55:52.933Z,1.07
2023-05-18T09:58:21.708Z,0.95
2023-05-18T10:00:57.075Z,1.10
2023-05-18T10:03:26.543Z,2.53
2023-05-18T10:05:55.213Z,1.00
2023-05-18T10:08:23.873Z,0.93
2023-05-18T10:10:53.408Z,1.10
2023-05-18T10:13:22.098Z,1.35
2023-05-18T10:15:54.480Z,1.17
2023-05-18T10:18:25.009Z,1.10
2023-05-18T10:20:55.952Z,1.30
2023-05-18T10:23:27.307Z,0.93
2023-05-18T10:25:56.599Z,1.00
2023-05-18T10:28:29.524Z,1.20
2023-05-18T10:31:01.473Z,1.40
2023-05-18T10:33:32.466Z,1.38
2023-05-18T10:36:03.775Z,1.00
2023-05-18T10:38:33.196Z,1.17
2023-05-18T10:41:02.464Z,1.07
2023-05-18T10:43:31.387Z,1.05
2023-05-18T10:46:04.085Z,1.20
2023-05-18T10:48:32.977Z,1.10
2023-05-18T10:51:05.737Z,1.08
2023-05-18T10:53:34.935Z,1.10
2023-05-18T10:56:03.988Z,0.95
2023-05-18T10:58:33.915Z,1.25
2023-05-18T11:01:06.949Z,1.00
2023-05-18T11:03:35.856Z,1.02
2023-05-18T11:06:10.754Z,1.20
2023-05-18T11:08:48.274Z,1.02
2023-05-18T11:11:19.261Z,1.10
2023-05-18T11:13:50.893Z,1.17
2023-05-18T11:16:21.515Z,1.25
2023-05-18T11:18:51.792Z,1.10
2023-05-18T11:21:49.385Z,1.02
2023-05-18T11:24:33.134Z,0.80
2023-05-18T11:27:05.131Z,0.80
2023-05-18T11:29:36.081Z,0.90
2023-05-18T11:32:28.829Z,0.90
2023-05-18T11:34:59.202Z,0.93
2023-05-18T11:37:49.833Z,0.95
2023-05-18T11:40:49.152Z,1.10
2023-05-18T11:43:23.286Z,1.00
2023-05-18T11:45:57.339Z,1.00
2023-05-18T11:48:31.135Z,1.13
2023-05-18T11:50:59.861Z,1.02
2023-05-18T11:53:31.428Z,0.90
2023-05-18T11:56:01.438Z,1.08
2023-05-18T11:58:33.046Z,1.20
2023-05-18T12:01:03.137Z,1.08
2023-05-18T12:03:34.485Z,1.20
2023-05-18T12:06:03.475Z,1.00
2023-05-18T12:08:32.259Z,1.45
2023-05-18T12:11:02.705Z,1.17
2023-05-18T12:13:31.864Z,1.20
2023-05-18T12:16:01.911Z,1.17
2023-05-18T12:18:30.972Z,0.95
2023-05-18T12:21:05.085Z,1.10
2023-05-18T12:23:39.851Z,1.33
2023-05-18T12:26:09.230Z,0.82
2023-05-18T12:28:38.157Z,0.60
2023-05-18T12:31:08.846Z,0.90
2023-05-18T12:33:37.954Z,0.80
2023-05-18T12:36:12.311Z,1.17
2023-05-18T12:38:40.920Z,0.93
2023-05-18T12:41:10.342Z,1.02
2023-05-18T12:43:39.136Z,1.00
2023-05-18T12:46:07.866Z,0.80
2023-05-18T12:48:47.078Z,0.90
2023-05-18T12:51:31.120Z,1.00
2023-05-18T12:53:59.912Z,1.15
2023-05-18T12:56:28.800Z,0.90
2023-05-18T12:59:03.407Z,1.15
2023-05-18T13:01:32.192Z,1.10
2023-05-18T13:04:01.005Z,1.00
2023-05-18T13:06:31.289Z,1.00
2023-05-18T13:08:59.892Z,0.90
2023-05-18T13:11:28.737Z,1.05
2023-05-18T13:14:04.997Z,1.38
2023-05-18T13:16:35.629Z,1.05
2023-05-18T13:19:07.379Z,0.85
2023-05-18T13:21:38.310Z,1.13
2023-05-18T13:24:10.358Z,0.80
2023-05-18T13:26:39.226Z,0.98
2023-05-18T13:29:08.790Z,0.90
2023-05-18T13:31:37.642Z,0.80
2023-05-18T13:34:06.466Z,1.30
2023-05-18T13:36:37.514Z,1.17
2023-05-18T13:39:07.645Z,0.98
2023-05-18T13:41:36.810Z,1.30
2023-05-18T13:44:05.752Z,1.08
2023-05-18T13:46:38.126Z,0.80
2023-05-18T13:49:06.942Z,1.00
2023-05-18T13:51:36.977Z,1.00
2023-05-18T13:54:06.137Z,1.10
2023-05-18T13:56:34.764Z,1.13
2023-05-18T13:59:03.788Z,0.80
2023-05-18T14:01:32.966Z,1.20
2023-05-18T14:04:01.717Z,1.17
2023-05-18T14:06:30.478Z,1.05
2023-05-18T14:09:00.583Z,1.35
2023-05-18T14:11:29.246Z,0.95
2023-05-18T14:13:57.898Z,1.00
2023-05-18T14:16:26.811Z,1.00
2023-05-18T14:18:55.491Z,1.20
2023-05-18T14:21:24.210Z,1.02
2023-05-18T14:23:52.870Z,1.42
2023-05-18T14:26:23.600Z,0.82
2023-05-18T14:28:52.170Z,1.00
2023-05-18T14:31:20.757Z,1.17
2023-05-18T14:33:49.391Z,1.20
2023-05-18T14:36:20.542Z,1.05
2023-05-18T14:39:06.541Z,1.23
2023-05-18T14:41:37.105Z,1.15
2023-05-18T14:44:08.816Z,1.08
2023-05-18T14:46:38.013Z,1.20
2023-05-18T14:49:06.768Z,1.17
2023-05-18T14:51:35.450Z,1.10
2023-05-18T14:54:04.005Z,1.08
2023-05-18T14:56:32.720Z,1.25
2023-05-18T14:59:02.913Z,1.30
2023-05-18T15:01:31.696Z,1.00
2023-05-18T15:04:00.457Z,1.73
2023-05-18T15:06:29.965Z,1.10
2023-05-18T15:08:58.698Z,1.67
2023-05-18T15:11:31.522Z,0.90
2023-05-18T15:14:01.678Z,0.80
2023-05-18T15:16:30.486Z,1.00
2023-05-18T15:18:59.268Z,1.10
2023-05-18T15:21:28.357Z,1.08
2023-05-18T15:23:57.008Z,1.25
2023-05-18T15:26:26.311Z,1.23
2023-05-18T15:28:55.196Z,1.27
2023-05-18T15:31:25.496Z,1.45
2023-05-18T15:33:54.220Z,1.20
2023-05-18T15:36:22.936Z,1.33
2023-05-18T15:38:51.649Z,1.30
2023-05-18T15:41:20.526Z,1.27
2023-05-18T15:43:49.576Z,1.23
2023-05-18T15:46:18.200Z,1.02
2023-05-18T15:48:48.439Z,1.10
2023-05-18T15:51:17.125Z,1.13
2023-05-18T15:53:45.827Z,1.20
2023-05-18T15:56:14.656Z,1.50
2023-05-18T15:58:43.274Z,1.30
2023-05-18T16:01:12.105Z,1.10
2023-05-18T16:03:40.862Z,1.33
2023-05-18T16:06:11.272Z,1.33
2023-05-18T16:08:40.087Z,1.35
2023-05-18T16:11:08.858Z,1.42
2023-05-18T16:13:37.576Z,1.17
2023-05-18T16:16:07.097Z,1.10
2023-05-18T16:18:35.785Z,1.20
2023-05-18T16:21:04.747Z,1.33
2023-05-18T16:23:36.463Z,1.20
2023-05-18T16:26:05.912Z,1.30
2023-05-18T16:28:34.920Z,1.17
2023-05-18T16:31:04.932Z,1.50
2023-05-18T16:33:33.814Z,1.30
2023-05-18T16:36:02.704Z,1.27
2023-05-18T16:38:31.669Z,1.60
2023-05-18T16:41:01.929Z,1.50
2023-05-18T16:43:30.701Z,1.52
2023-05-18T16:46:00.726Z,1.40
2023-05-18T16:48:29.488Z,1.70
2023-05-18T16:51:00.617Z,1.40
2023-05-18T16:53:29.389Z,1.30
2023-05-18T16:55:58.152Z,1.60
2023-05-18T16:58:28.324Z,1.50
2023-05-18T17:00:57.064Z,1.60
2023-05-18T17:03:25.928Z,1.35
2023-05-18T17:05:54.727Z,1.53
2023-05-18T17:08:23.779Z,1.40
2023-05-18T17:10:52.503Z,1.50
2023-05-18T17:13:21.214Z,1.53
2023-05-18T17:15:51.684Z,1.73
2023-05-18T17:18:20.422Z,1.70
2023-05-18T17:20:49.094Z,1.77
2023-05-18T17:23:19.089Z,2.40
2023-05-18T17:25:48.634Z,2.03
2023-05-18T17:28:19.124Z,1.93
2023-05-18T17:30:48.150Z,1.77
2023-05-18T17:33:18.362Z,2.13
2023-05-18T17:35:47.060Z,2.10
2023-05-18T17:38:17.385Z,2.10
2023-05-18T17:40:46.070Z,2.30
2023-05-18T17:43:14.865Z,2.37
2023-05-18T17:45:43.566Z,2.50
2023-05-18T17:48:12.465Z,2.27
2023-05-18T17:50:42.621Z,2.20
2023-05-18T17:53:11.273Z,2.20
2023-05-18T17:55:40.125Z,2.50
2023-05-18T17:58:08.938Z,2.37
2023-05-18T18:00:37.572Z,2.40
2023-05-18T18:03:06.366Z,2.00
2023-05-18T18:05:35.151Z,2.00
2023-05-18T18:08:05.391Z,2.33
2023-05-18T18:10:35.009Z,2.47
2023-05-18T18:13:03.661Z,2.30
2023-05-18T18:15:32.441Z,2.20
2023-05-18T18:18:01.584Z,2.20
2023-05-18T18:20:31.757Z,2.10
2023-05-18T18:23:00.771Z,2.40
2023-05-18T18:25:31.331Z,2.30
2023-05-18T18:28:00.275Z,2.47
2023-05-18T18:30:30.131Z,2.77
2023-05-18T18:33:01.905Z,2.67
2023-05-18T18:35:30.724Z,2.97
2023-05-18T18:37:59.605Z,2.57
2023-05-18T18:40:29.984Z,3.20
2023-05-18T18:42:58.964Z,3.10
2023-05-18T18:45:29.321Z,2.70
2023-05-18T18:47:58.088Z,3.70
2023-05-18T18:50:26.959Z,3.37
2023-05-18T18:52:57.269Z,3.37
2023-05-18T18:55:26.267Z,3.43
2023-05-18T18:57:58.874Z,3.33
2023-05-18T19:00:27.804Z,4.93
2023-05-18T19:02:56.561Z,4.57
2023-05-18T19:05:25.326Z,4.10
2023-05-18T19:07:56.027Z,4.37
2023-05-18T19:10:25.764Z,4.00
2023-05-18T19:12:57.235Z,3.60
2023-05-18T19:15:26.002Z,4.23
2023-05-18T19:17:54.883Z,4.20
2023-05-18T19:20:25.144Z,4.43
2023-05-18T19:22:54.467Z,4.37
2023-05-18T19:25:24.826Z,3.73
2023-05-18T19:28:10.853Z,3.80
2023-05-18T19:30:39.933Z,3.97
2023-05-18T19:33:08.677Z,4.30
2023-05-18T19:35:37.432Z,3.80
2023-05-18T19:38:06.129Z,4.67
2023-05-18T19:40:34.853Z,4.20
2023-05-18T19:43:03.595Z,5.07
2023-05-18T19:45:34.753Z,4.90
2023-05-18T19:48:04.016Z,5.40
2023-05-18T19:50:32.817Z,5.30
2023-05-18T19:53:01.907Z,5.23
2023-05-18T19:55:33.311Z,5.20
2023-05-18T19:58:01.964Z,5.13
2023-05-18T20:00:31.240Z,4.87
2023-05-18T20:03:03.391Z,4.93
2023-05-18T20:05:32.142Z,4.83
2023-05-18T20:08:02.226Z,4.60
2023-05-18T20:10:31.344Z,4.63
2023-05-18T20:13:03.528Z,4.17
2023-05-18T20:15:32.822Z,3.97
2023-05-18T20:18:05.168Z,4.27
2023-05-18T20:20:36.310Z,4.27
2023-05-18T20:23:06.981Z,4.10
2023-05-18T20:25:36.563Z,3.70
2023-05-18T20:28:07.553Z,3.90
2023-05-18T20:30:36.558Z,4.10
2023-05-18T20:33:06.711Z,3.93
2023-05-18T20:35:36.360Z,4.07
2023-05-18T20:38:14.517Z,3.70
2023-05-18T20:40:44.417Z,3.97
2023-05-18T20:43:18.221Z,4.15
2023-05-18T20:45:47.505Z,3.90
2023-05-18T20:48:25.053Z,3.80
2023-05-18T20:50:56.950Z,4.03
2023-05-18T20:53:26.237Z,3.77
2023-05-18T20:55:54.877Z,4.30
2023-05-18T20:58:23.463Z,3.87
2023-05-18T21:00:52.397Z,3.40
2023-05-18T21:03:22.649Z,3.83
2023-05-18T21:05:52.016Z,4.00
2023-05-18T21:08:20.718Z,3.60
2023-05-18T21:10:49.375Z,4.00
2023-05-18T21:13:18.064Z,4.13
2023-05-18T21:15:46.718Z,3.97
2023-05-18T21:18:15.427Z,4.30
2023-05-18T21:20:46.099Z,4.03
2023-05-18T21:23:14.755Z,3.83
2023-05-18T21:25:43.379Z,4.20
2023-05-18T21:28:12.018Z,4.13
2023-05-18T21:30:41.333Z,4.03
2023-05-18T21:33:10.096Z,3.93
2023-05-18T21:35:38.920Z,4.80
2023-05-18T21:38:09.020Z,4.10
2023-05-18T21:40:38.124Z,3.93
2023-05-18T21:43:06.754Z,3.33
2023-05-18T21:45:35.791Z,3.50
2023-05-18T21:48:04.584Z,3.70
2023-05-18T21:50:35.385Z,3.30
2023-05-18T21:53:04.386Z,3.30
2023-05-18T21:55:34.953Z,4.37
2023-05-18T21:58:03.611Z,3.50
2023-05-18T22:00:32.466Z,3.47
2023-05-18T22:03:01.367Z,3.80
2023-05-18T22:05:30.050Z,4.40
2023-05-18T22:07:59.283Z,4.20
2023-05-18T22:10:28.143Z,3.70
2023-05-18T22:12:58.229Z,4.07
2023-05-18T22:15:27.038Z,4.30
2023-05-18T22:17:55.978Z,4.90
2023-05-18T22:20:24.834Z,4.77
2023-05-18T22:22:53.612Z,4.33
2023-05-18T22:25:22.251Z,4.90
2023-05-18T22:27:50.934Z,4.70
2023-05-18T22:30:24.009Z,6.53
2023-05-18T22:32:53.207Z,5.40
2023-05-18T22:35:22.088Z,5.90
2023-05-18T22:37:50.837Z,5.50
2023-05-18T22:40:19.542Z,4.63
2023-05-18T22:42:48.289Z,4.63
2023-05-18T22:45:17.236Z,4.00
2023-05-18T22:47:48.515Z,3.50
2023-05-18T22:50:17.252Z,3.50
2023-05-18T22:52:46.159Z,3.20
2023-05-18T22:55:14.851Z,2.93
2023-05-18T22:57:44.826Z,2.60
2023-05-18T23:00:15.976Z,3.00
2023-05-18T23:02:44.839Z,2.67
2023-05-18T23:05:16.177Z,2.60
2023-05-18T23:07:44.871Z,3.33
2023-05-18T23:10:14.462Z,2.90
2023-05-18T23:12:45.682Z,3.27
2023-05-18T23:15:15.665Z,2.67
2023-05-18T23:17:46.362Z,2.70
2023-05-18T23:20:16.737Z,2.67
2023-05-18T23:22:45.679Z,2.33
2023-05-18T23:25:14.327Z,2.30
2023-05-18T23:27:43.083Z,3.67
2023-05-18T23:30:12.932Z,3.40
2023-05-18T23:32:42.457Z,4.50
2023-05-18T23:35:14.009Z,3.43
2023-05-18T23:37:44.679Z,2.63
2023-05-18T23:40:14.496Z,2.37
2023-05-18T23:42:43.657Z,2.00
2023-05-18T23:45:13.482Z,2.50
2023-05-18T23:47:42.648Z,2.17
2023-05-18T23:50:12.392Z,2.40
2023-05-18T23:52:42.574Z,2.27
2023-05-18T23:55:13.826Z,2.60
2023-05-18T23:57:43.052Z,2.33
